Time;durP1;ratioP1;P1;durP2;ratioP2;P2;SDS_P1;SDS_P2;PMS_P1;PMS_P2;Temp;Humidity;BMP_temperature;BMP_pressure;BME280_temperature;BME280_humidity;BME280_pressure;Samples;Min_cycle;Max_cycle;Signal;HPM_P1;HPM_P2
2020/12/10 00:00:00;;;;;;;67.13;23.95;;;2.10;99.90;;;;;;5109336;28;20036;-79
2020/12/10 00:02:28;;;;;;;63.67;21.60;;;2.10;99.90;;;;;;5112478;28;20470;-78
2020/12/10 00:04:53;;;;;;;70.25;24.42;;;2.10;99.90;;;;;;5114756;28;20051;-78
2020/12/10 00:07:21;;;;;;;61.75;21.23;;;2.10;99.90;;;;;;5113591;28;20062;-78
2020/12/10 00:09:47;;;;;;;60.65;24.17;;;2.10;99.90;;;;;;5113004;28;20065;-78
2020/12/10 00:12:12;;;;;;;69.75;25.17;;;2.10;99.90;;;;;;5113433;28;20039;-78
2020/12/10 00:14:38;;;;;;;68.63;25.67;;;2.10;99.90;;;;;;5114630;28;20208;-78
2020/12/10 00:17:03;;;;;;;69.85;23.95;;;2.10;99.90;;;;;;5113230;28;20042;-78
2020/12/10 00:19:30;;;;;;;70.70;26.35;;;2.10;99.90;;;;;;5113959;28;20118;-78
2020/12/10 00:21:55;;;;;;;70.05;25.70;;;2.10;99.90;;;;;;5114568;28;20043;-78
2020/12/10 00:24:21;;;;;;;74.70;27.25;;;2.10;99.90;;;;;;5111768;28;20086;-78
2020/12/10 00:26:47;;;;;;;70.10;23.75;;;2.10;99.90;;;;;;5114662;28;20532;-78
2020/12/10 00:29:12;;;;;;;72.85;26.23;;;2.20;99.90;;;;;;5112771;28;20443;-78
2020/12/10 00:31:38;;;;;;;72.03;24.98;;;2.20;99.90;;;;;;5113303;28;20036;-78
2020/12/10 00:34:05;;;;;;;68.32;24.83;;;2.20;99.90;;;;;;5114558;28;20032;-78
2020/12/10 00:36:31;;;;;;;67.63;24.65;;;2.20;99.90;;;;;;5113735;28;20453;-79
2020/12/10 00:38:57;;;;;;;72.00;25.58;;;2.20;99.90;;;;;;5116401;28;20039;-79
2020/12/10 00:41:22;;;;;;;66.35;25.05;;;2.30;99.90;;;;;;5114425;28;20538;-78
2020/12/10 00:43:48;;;;;;;73.28;24.35;;;2.40;99.90;;;;;;5113469;28;20047;-79
2020/12/10 00:46:14;;;;;;;73.88;25.73;;;2.40;99.90;;;;;;5113249;28;20066;-78
2020/12/10 00:48:39;;;;;;;66.50;25.40;;;2.50;99.90;;;;;;5099647;28;20070;-78
2020/12/10 00:51:07;;;;;;;75.80;26.33;;;2.40;99.90;;;;;;5093631;28;20040;-78
2020/12/10 00:53:33;;;;;;;73.30;24.92;;;2.30;99.90;;;;;;5093739;28;20043;-78
2020/12/10 00:55:59;;;;;;;69.68;25.15;;;1.90;99.90;;;;;;5092544;28;20048;-79
2020/12/10 00:58:25;;;;;;;64.30;24.58;;;1.90;99.90;;;;;;5095236;28;20127;-79
2020/12/10 01:00:52;;;;;;;66.45;24.80;;;2.10;99.90;;;;;;5094682;28;20048;-79
2020/12/10 01:03:17;;;;;;;57.45;22.58;;;2.20;99.90;;;;;;5095716;28;20047;-80
2020/12/10 01:05:43;;;;;;;62.45;23.23;;;2.30;99.90;;;;;;5095077;28;20036;-79
2020/12/10 01:08:09;;;;;;;73.50;24.60;;;2.50;99.90;;;;;;5094044;28;20079;-80
2020/12/10 01:10:36;;;;;;;72.13;25.38;;;2.50;99.90;;;;;;5093193;28;20038;-80
2020/12/10 01:13:02;;;;;;;74.85;23.77;;;2.30;99.90;;;;;;5093080;28;20040;-78
2020/12/10 01:15:27;;;;;;;71.82;25.27;;;2.30;99.90;;;;;;5093597;28;20404;-78
2020/12/10 01:17:53;;;;;;;73.18;26.20;;;2.20;99.90;;;;;;5093626;28;20032;-78
2020/12/10 01:20:19;;;;;;;78.75;25.77;;;2.10;99.90;;;;;;5093198;28;20415;-78
2020/12/10 01:22:44;;;;;;;62.85;23.75;;;2.00;99.90;;;;;;5092185;28;20042;-78
2020/12/10 01:25:10;;;;;;;59.38;22.98;;;2.00;99.90;;;;;;5094953;28;20481;-78
2020/12/10 01:27:37;;;;;;;70.82;24.35;;;2.10;99.90;;;;;;5113781;28;20050;-78
2020/12/10 01:30:03;;;;;;;68.63;24.83;;;2.00;99.90;;;;;;5112173;28;20075;-78
2020/12/10 01:32:29;;;;;;;68.88;24.88;;;2.00;99.90;;;;;;5111171;28;20134;-78
2020/12/10 01:34:54;;;;;;;74.50;26.48;;;1.80;99.90;;;;;;5111703;28;20142;-78
2020/12/10 01:37:20;;;;;;;72.57;25.48;;;1.90;99.90;;;;;;5111046;28;20043;-78
2020/12/10 01:39:45;;;;;;;70.25;24.70;;;1.90;99.90;;;;;;5111726;28;20043;-78
2020/12/10 01:42:12;;;;;;;64.40;22.73;;;2.00;99.90;;;;;;5113721;28;20039;-79
2020/12/10 01:44:38;;;;;;;67.63;24.42;;;2.00;99.90;;;;;;5114224;28;20393;-78
2020/12/10 01:47:05;;;;;;;70.05;24.55;;;2.10;99.90;;;;;;5112257;28;20035;-79
2020/12/10 01:49:33;;;;;;;66.57;23.52;;;2.20;99.90;;;;;;5112920;28;20481;-78
2020/12/10 01:51:58;;;;;;;67.97;24.13;;;2.20;99.90;;;;;;5112123;28;20039;-78
2020/12/10 01:54:24;;;;;;;75.80;25.77;;;2.20;99.90;;;;;;5112300;28;20050;-78
2020/12/10 01:56:52;;;;;;;73.47;24.85;;;2.10;99.90;;;;;;5113396;28;20469;-78
2020/12/10 01:59:18;;;;;;;82.13;26.35;;;2.00;99.90;;;;;;5113157;28;20096;-80
2020/12/10 02:01:44;;;;;;;73.43;24.35;;;2.10;99.90;;;;;;5111582;28;20059;-78
2020/12/10 02:04:29;;;;;;;67.32;24.30;;;2.10;99.90;;;;;;5113487;28;20373;-78
2020/12/10 02:06:55;;;;;;;64.25;23.27;;;2.10;99.90;;;;;;5111971;28;20063;-78
2020/12/10 02:09:21;;;;;;;67.85;23.42;;;2.00;99.90;;;;;;5108753;28;20051;-78
2020/12/10 02:11:47;;;;;;;73.47;25.88;;;2.00;99.90;;;;;;5094299;28;20040;-78
2020/12/10 02:14:12;;;;;;;67.40;23.67;;;2.00;99.90;;;;;;5110862;28;20492;-78
2020/12/10 02:16:38;;;;;;;75.03;25.35;;;2.00;99.90;;;;;;5113500;28;20028;-79
2020/12/10 02:19:04;;;;;;;75.50;25.80;;;2.10;99.90;;;;;;5113182;28;20036;-79
2020/12/10 02:21:30;;;;;;;68.10;24.73;;;2.20;99.90;;;;;;5118186;28;20119;-79
2020/12/10 02:23:56;;;;;;;61.38;23.17;;;2.10;99.90;;;;;;5111172;28;20466;-80
2020/12/10 02:26:22;;;;;;;58.45;22.15;;;2.20;99.90;;;;;;5110930;28;20542;-80
2020/12/10 02:28:48;;;;;;;63.72;22.20;;;2.30;99.90;;;;;;5104669;28;20059;-80
2020/12/10 02:31:20;;;;;;;69.70;24.70;;;2.40;99.90;;;;;;5101493;28;20040;-79
2020/12/10 02:33:46;;;;;;;59.83;22.63;;;2.50;99.90;;;;;;5098452;28;20061;-79
2020/12/10 02:36:12;;;;;;;62.05;23.70;;;2.60;99.90;;;;;;5110500;28;20031;-78
2020/12/10 02:38:38;;;;;;;62.25;23.33;;;2.60;99.90;;;;;;5108640;27;20035;-79
2020/12/10 02:41:04;;;;;;;70.15;25.35;;;2.60;99.90;;;;;;5110744;28;20039;-79
2020/12/10 02:43:30;;;;;;;58.03;23.15;;;2.70;99.90;;;;;;5103215;28;20040;-80
2020/12/10 02:45:56;;;;;;;65.10;23.08;;;2.60;99.90;;;;;;5096211;28;20398;-79
2020/12/10 02:48:21;;;;;;;62.92;23.27;;;2.60;99.90;;;;;;5103326;28;20047;-78
2020/12/10 02:50:47;;;;;;;63.88;23.45;;;2.70;99.90;;;;;;5105660;28;20036;-78
2020/12/10 02:53:12;;;;;;;58.45;22.40;;;2.70;99.90;;;;;;5111872;28;20036;-79
2020/12/10 02:55:38;;;;;;;68.05;23.92;;;2.70;99.90;;;;;;5111037;28;20069;-78
2020/12/10 02:58:04;;;;;;;66.28;25.08;;;2.70;99.90;;;;;;5110091;28;20032;-78
2020/12/10 03:00:30;;;;;;;64.90;23.92;;;2.70;99.90;;;;;;5096847;28;20512;-78
2020/12/10 03:02:56;;;;;;;67.88;23.88;;;2.70;99.90;;;;;;5097257;28;20032;-79
2020/12/10 03:05:22;;;;;;;66.25;24.23;;;2.60;99.90;;;;;;5096119;28;20586;-79
2020/12/10 03:07:47;;;;;;;59.05;24.17;;;2.60;99.90;;;;;;5096894;28;20051;-78
2020/12/10 03:10:13;;;;;;;60.60;22.92;;;2.60;99.90;;;;;;5094386;28;20549;-78
2020/12/10 03:12:38;;;;;;;63.35;22.98;;;2.60;99.90;;;;;;5095382;28;20047;-78
2020/12/10 03:15:05;;;;;;;57.88;22.58;;;2.60;99.90;;;;;;5094683;28;20093;-81
2020/12/10 03:17:31;;;;;;;66.65;23.75;;;2.60;99.90;;;;;;5095702;28;20051;-80
2020/12/10 03:19:57;;;;;;;62.53;23.23;;;2.60;99.90;;;;;;5094753;28;20055;-80
2020/12/10 03:22:22;;;;;;;67.15;24.33;;;2.60;99.90;;;;;;5095529;28;20068;-80
2020/12/10 03:24:48;;;;;;;59.80;23.67;;;2.60;99.90;;;;;;5095471;28;20063;-80
2020/12/10 03:27:14;;;;;;;63.50;23.95;;;2.30;99.90;;;;;;5096763;28;20502;-80
2020/12/10 03:29:39;;;;;;;66.68;25.45;;;2.10;99.90;;;;;;5097832;28;20050;-80
2020/12/10 03:32:06;;;;;;;65.50;24.65;;;1.90;99.90;;;;;;5096514;28;20039;-80
2020/12/10 03:34:32;;;;;;;64.20;23.80;;;1.80;99.90;;;;;;5097741;28;20044;-80
2020/12/10 03:36:58;;;;;;;67.25;23.48;;;1.80;99.90;;;;;;5097455;28;20094;-81
2020/12/10 03:39:25;;;;;;;71.90;24.73;;;2.00;99.90;;;;;;5098214;28;20039;-81
2020/12/10 03:41:52;;;;;;;64.15;23.40;;;2.20;99.90;;;;;;5098350;28;20036;-82
2020/12/10 03:44:18;;;;;;;59.92;22.75;;;2.30;99.90;;;;;;5097004;28;20044;-80
2020/12/10 03:46:45;;;;;;;67.50;23.80;;;2.40;99.90;;;;;;5098436;28;20056;-81
2020/12/10 03:49:11;;;;;;;66.72;24.38;;;2.50;99.90;;;;;;5098521;28;20036;-81
2020/12/10 03:51:37;;;;;;;68.15;23.83;;;2.60;99.90;;;;;;5096433;28;20075;-80
2020/12/10 03:54:04;;;;;;;61.58;22.35;;;2.70;99.90;;;;;;5098472;28;20044;-80
2020/12/10 03:56:31;;;;;;;61.75;22.55;;;2.80;99.90;;;;;;5098184;28;20052;-81
2020/12/10 03:58:56;;;;;;;52.70;20.67;;;2.90;99.90;;;;;;5098371;28;20036;-82
2020/12/10 04:01:22;;;;;;;60.42;21.98;;;2.80;99.90;;;;;;5098728;28;20040;-82
2020/12/10 04:03:48;;;;;;;61.90;21.73;;;2.80;99.90;;;;;;5098347;28;20036;-80
2020/12/10 04:06:14;;;;;;;59.50;21.75;;;2.80;99.90;;;;;;5096710;28;20044;-79
2020/12/10 04:08:40;;;;;;;53.50;21.00;;;2.90;99.90;;;;;;5096268;28;20051;-80
2020/12/10 04:11:05;;;;;;;62.28;22.45;;;2.80;99.90;;;;;;5096896;28;20489;-80
2020/12/10 04:13:31;;;;;;;59.47;22.30;;;2.80;99.90;;;;;;5098184;28;20118;-81
2020/12/10 04:16:00;;;;;;;64.38;23.20;;;2.80;99.90;;;;;;5095917;28;20040;-81
2020/12/10 04:18:25;;;;;;;63.88;21.77;;;2.80;99.90;;;;;;5097198;28;20036;-82
2020/12/10 04:20:51;;;;;;;64.07;23.35;;;2.70;99.90;;;;;;5097479;28;20129;-80
2020/12/10 04:23:18;;;;;;;63.88;23.95;;;2.70;99.90;;;;;;5098729;28;20063;-81
2020/12/10 04:25:43;;;;;;;57.05;22.05;;;2.70;99.90;;;;;;5098329;28;20455;-80
2020/12/10 04:28:09;;;;;;;62.10;24.45;;;2.70;99.90;;;;;;5096281;28;20040;-80
2020/12/10 04:30:35;;;;;;;57.38;22.70;;;2.70;99.90;;;;;;5097156;28;20075;-80
2020/12/10 04:33:00;;;;;;;60.30;22.50;;;2.70;99.90;;;;;;5097931;28;20032;-81
2020/12/10 04:35:26;;;;;;;54.15;21.27;;;2.60;99.90;;;;;;5098170;28;20040;-82
2020/12/10 04:37:51;;;;;;;62.50;24.83;;;2.60;99.90;;;;;;5098195;28;20040;-82
2020/12/10 04:40:18;;;;;;;59.03;22.42;;;2.70;99.90;;;;;;5096264;28;20040;-80
2020/12/10 04:42:46;;;;;;;58.70;23.30;;;2.70;99.90;;;;;;5098556;28;20044;-82
2020/12/10 04:45:12;;;;;;;65.57;23.02;;;2.70;99.90;;;;;;5118569;28;20036;-80
2020/12/10 04:47:40;;;;;;;62.83;24.00;;;2.70;99.90;;;;;;5118131;28;20036;-80
2020/12/10 04:50:15;;;;;;;61.38;23.60;;;2.60;99.90;;;;;;5105299;28;20173;-81
2020/12/10 04:52:41;;;;;;;59.85;24.23;;;2.60;99.90;;;;;;5098168;28;20028;-80
2020/12/10 04:55:07;;;;;;;69.72;23.55;;;2.70;99.90;;;;;;5094379;28;20044;-79
2020/12/10 04:57:34;;;;;;;64.88;23.35;;;2.70;99.90;;;;;;5094607;28;20047;-80
2020/12/10 05:00:00;;;;;;;60.72;23.30;;;2.60;99.90;;;;;;5093695;28;20060;-80
2020/12/10 05:02:26;;;;;;;66.00;24.95;;;2.60;99.90;;;;;;5093767;28;20040;-79
2020/12/10 05:04:53;;;;;;;65.20;24.42;;;2.60;99.90;;;;;;5094446;28;20058;-79
2020/12/10 05:07:18;;;;;;;54.72;21.02;;;2.60;99.90;;;;;;5093941;28;20048;-79
2020/12/10 05:09:55;;;;;;;60.85;23.38;;;2.60;99.90;;;;;;5093685;28;20089;-79
2020/12/10 05:12:21;;;;;;;65.18;24.10;;;2.50;99.90;;;;;;5094212;28;20398;-79
2020/12/10 05:14:48;;;;;;;63.83;23.85;;;2.50;99.90;;;;;;5091737;28;20046;-79
2020/12/10 05:17:15;;;;;;;61.88;23.67;;;2.50;99.90;;;;;;5093983;28;20074;-79
2020/12/10 05:19:41;;;;;;;62.78;23.92;;;2.40;99.90;;;;;;5093133;28;20040;-80
2020/12/10 05:22:08;;;;;;;65.30;24.30;;;2.40;99.90;;;;;;5092431;28;20118;-79
2020/12/10 05:24:35;;;;;;;59.58;23.05;;;2.30;99.90;;;;;;5092540;28;20090;-79
2020/12/10 05:27:14;;;;;;;61.70;23.02;;;2.30;99.90;;;;;;5092939;28;20033;-79
2020/12/10 05:29:39;;;;;;;69.10;24.67;;;2.40;99.90;;;;;;5093577;28;20039;-79
2020/12/10 05:32:06;;;;;;;55.80;22.55;;;2.40;99.90;;;;;;5097040;28;20040;-80
2020/12/10 05:34:31;;;;;;;63.05;24.38;;;2.40;99.90;;;;;;5094037;28;20047;-80
2020/12/10 05:36:57;;;;;;;59.25;25.08;;;2.50;99.90;;;;;;5095116;28;20063;-80
2020/12/10 05:39:23;;;;;;;74.60;24.58;;;2.50;99.90;;;;;;5092159;28;20400;-79
2020/12/10 05:41:53;;;;;;;66.53;25.95;;;2.50;99.90;;;;;;5093648;28;20036;-80
2020/12/10 05:44:21;;;;;;;62.90;25.15;;;2.50;99.90;;;;;;5092638;28;20400;-79
2020/12/10 05:46:49;;;;;;;60.22;22.48;;;2.40;99.90;;;;;;5096672;28;20086;-81
2020/12/10 05:49:15;;;;;;;71.50;25.63;;;2.50;99.90;;;;;;5094379;28;20044;-82
2020/12/10 05:51:43;;;;;;;68.00;26.02;;;2.50;99.90;;;;;;5097485;28;20070;-81
2020/12/10 05:54:10;;;;;;;63.35;25.05;;;2.50;99.90;;;;;;5095331;28;20047;-79
2020/12/10 05:56:45;;;;;;;63.25;25.23;;;2.50;99.90;;;;;;5095651;28;20040;-80
2020/12/10 05:59:12;;;;;;;67.40;24.05;;;2.50;99.90;;;;;;5099320;28;20113;-81
2020/12/10 06:01:38;;;;;;;61.38;23.50;;;2.50;99.90;;;;;;5096703;28;20058;-79
2020/12/10 06:04:03;;;;;;;63.25;24.58;;;2.50;99.90;;;;;;5097885;28;20485;-82
2020/12/10 06:06:30;;;;;;;63.95;24.70;;;2.50;99.90;;;;;;5101466;28;20089;-82
2020/12/10 06:09:01;;;;;;;63.95;24.08;;;2.40;99.90;;;;;;5098922;28;20138;-79
2020/12/10 06:11:28;;;;;;;64.47;23.80;;;2.40;99.90;;;;;;5097630;28;20031;-80
2020/12/10 06:14:00;;;;;;;60.45;23.65;;;2.50;99.90;;;;;;5099923;28;20032;-82
2020/12/10 06:16:26;;;;;;;63.25;24.23;;;2.40;99.90;;;;;;5101756;28;20044;-82
2020/12/10 06:19:03;;;;;;;59.45;24.45;;;2.50;99.90;;;;;;5100125;28;20036;-83
2020/12/10 06:21:38;;;;;;;60.72;24.40;;;2.50;99.90;;;;;;5100844;28;20413;-81
2020/12/10 06:24:31;;;;;;;63.22;23.73;;;2.60;99.90;;;;;;5101253;28;20055;-82
2020/12/10 06:26:58;;;;;;;67.82;24.00;;;2.60;99.90;;;;;;5101229;28;20044;-82
2020/12/10 06:29:26;;;;;;;64.72;22.85;;;2.60;99.90;;;;;;5106044;28;20070;-82
2020/12/10 06:32:06;;;;;;;72.95;24.38;;;2.60;99.90;;;;;;5097973;28;20039;-79
2020/12/10 06:34:33;;;;;;;61.40;23.60;;;2.50;99.90;;;;;;5096041;28;20036;-80
2020/12/10 06:37:13;;;;;;;65.93;23.95;;;2.60;99.90;;;;;;5097586;28;20060;-80
2020/12/10 06:39:39;;;;;;;62.28;23.65;;;2.60;99.90;;;;;;5095885;28;20055;-79
2020/12/10 06:42:05;;;;;;;66.07;24.92;;;2.50;99.90;;;;;;5095476;28;20048;-79
2020/12/10 06:44:31;;;;;;;71.95;23.85;;;2.40;99.90;;;;;;5096611;28;20040;-80
2020/12/10 06:46:58;;;;;;;66.32;24.05;;;2.40;99.90;;;;;;5096726;28;20036;-80
2020/12/10 06:49:28;;;;;;;63.22;23.88;;;2.40;99.90;;;;;;5098082;28;20046;-80
2020/12/10 06:52:18;;;;;;;66.53;24.75;;;2.30;99.90;;;;;;5099185;28;20036;-80
2020/12/10 06:55:10;;;;;;;60.77;23.27;;;2.40;99.90;;;;;;5100303;28;20036;-80
2020/12/10 06:58:05;;;;;;;61.20;23.90;;;2.50;99.90;;;;;;5099331;28;20310;-81
2020/12/10 07:00:41;;;;;;;68.28;23.63;;;2.60;99.90;;;;;;5098885;28;20036;-78
2020/12/10 07:03:07;;;;;;;59.83;22.80;;;2.60;99.90;;;;;;5100432;28;20078;-82
2020/12/10 07:05:33;;;;;;;64.30;24.83;;;2.60;99.90;;;;;;5099309;28;20035;-80
2020/12/10 07:08:06;;;;;;;65.82;23.45;;;2.60;99.90;;;;;;5098840;28;20461;-82
2020/12/10 07:10:36;;;;;;;61.58;23.52;;;2.70;99.90;;;;;;5100222;28;20532;-82
2020/12/10 07:13:02;;;;;;;66.32;23.40;;;2.80;99.90;;;;;;5099238;28;20067;-81
2020/12/10 07:15:28;;;;;;;68.60;22.35;;;2.70;99.90;;;;;;5098300;28;20047;-80
2020/12/10 07:17:54;;;;;;;65.38;24.05;;;2.60;99.90;;;;;;5100270;28;20035;-80
2020/12/10 07:20:20;;;;;;;62.20;23.25;;;2.70;99.90;;;;;;5099492;28;20409;-82
2020/12/10 07:22:46;;;;;;;68.30;24.48;;;2.70;99.90;;;;;;5098175;28;20142;-80
2020/12/10 07:25:13;;;;;;;60.85;22.85;;;2.70;99.90;;;;;;5097401;28;20040;-81
2020/12/10 07:27:40;;;;;;;63.17;25.00;;;2.70;99.90;;;;;;5096952;28;20123;-80
2020/12/10 07:30:09;;;;;;;64.28;24.10;;;2.70;99.90;;;;;;5094257;28;20036;-80
2020/12/10 07:32:34;;;;;;;66.55;24.00;;;2.70;99.90;;;;;;5094087;28;20474;-79
2020/12/10 07:35:00;;;;;;;65.72;24.08;;;2.60;99.90;;;;;;5095519;28;20043;-80
2020/12/10 07:37:31;;;;;;;64.55;25.92;;;2.60;99.90;;;;;;5095777;28;20549;-80
2020/12/10 07:39:57;;;;;;;64.63;24.05;;;2.60;99.90;;;;;;5093704;28;20043;-80
2020/12/10 07:42:23;;;;;;;63.25;22.67;;;2.60;99.90;;;;;;5095308;28;20111;-80
2020/12/10 07:44:49;;;;;;;65.25;24.50;;;2.50;99.90;;;;;;5093799;28;20093;-80
2020/12/10 07:47:15;;;;;;;66.35;24.15;;;2.50;99.90;;;;;;5095301;28;20040;-80
2020/12/10 07:49:40;;;;;;;66.78;23.77;;;2.50;99.90;;;;;;5093347;28;20039;-81
2020/12/10 07:52:07;;;;;;;66.13;23.33;;;2.50;99.90;;;;;;5093766;28;20036;-79
2020/12/10 07:54:44;;;;;;;66.80;23.67;;;2.50;99.90;;;;;;5095083;28;20050;-80
2020/12/10 07:57:22;;;;;;;65.90;23.50;;;2.50;99.90;;;;;;5093720;28;20040;-80
2020/12/10 07:59:56;;;;;;;61.95;24.77;;;2.40;99.90;;;;;;5093213;28;20059;-80
2020/12/10 08:02:38;;;;;;;65.15;22.70;;;2.40;99.90;;;;;;5094705;28;20105;-80
2020/12/10 08:05:12;;;;;;;79.20;25.17;;;2.40;99.90;;;;;;5095171;28;20056;-80
2020/12/10 08:07:38;;;;;;;63.35;22.30;;;2.30;99.90;;;;;;5094884;28;20405;-79
2020/12/10 08:10:03;;;;;;;61.72;24.20;;;2.30;99.90;;;;;;5092997;28;20046;-80
2020/12/10 08:12:29;;;;;;;68.68;23.60;;;2.20;99.90;;;;;;5093475;28;20459;-80
2020/12/10 08:14:56;;;;;;;71.47;23.52;;;2.20;99.90;;;;;;5092777;28;20068;-79
2020/12/10 08:17:25;;;;;;;64.03;23.38;;;2.30;99.90;;;;;;5094604;28;20040;-80
2020/12/10 08:19:55;;;;;;;64.63;21.83;;;2.30;99.90;;;;;;5094041;28;20389;-80
2020/12/10 08:22:22;;;;;;;74.72;23.83;;;2.30;99.90;;;;;;5093355;28;20060;-80
2020/12/10 08:24:48;;;;;;;60.83;23.05;;;2.40;99.90;;;;;;5094437;28;20103;-81
2020/12/10 08:27:15;;;;;;;69.70;23.65;;;2.40;99.90;;;;;;5094832;28;20078;-80
2020/12/10 08:30:00;;;;;;;64.55;22.77;;;2.50;99.90;;;;;;5094315;28;20471;-80
2020/12/10 08:32:26;;;;;;;65.82;22.52;;;2.50;99.90;;;;;;5095537;28;20040;-80
2020/12/10 08:35:02;;;;;;;68.63;22.63;;;2.60;99.90;;;;;;5093277;28;20032;-80
2020/12/10 08:37:36;;;;;;;68.78;23.48;;;2.60;99.90;;;;;;5095051;28;20028;-81
2020/12/10 08:40:02;;;;;;;61.65;22.60;;;2.60;99.90;;;;;;5097909;28;20044;-80
2020/12/10 08:42:28;;;;;;;68.82;23.77;;;2.60;99.90;;;;;;5093143;28;20393;-80
2020/12/10 08:44:54;;;;;;;58.08;20.42;;;2.40;99.90;;;;;;5094209;28;20051;-80
2020/12/10 08:47:24;;;;;;;63.95;21.95;;;2.40;99.90;;;;;;5092951;28;20079;-80
2020/12/10 08:50:03;;;;;;;;;;;2.30;99.90;;;;;;5092981;28;20052;-80
2020/12/10 08:52:29;;;;;;;66.47;22.07;;;2.40;99.90;;;;;;5092990;28;19963;-80
2020/12/10 08:54:55;;;;;;;64.97;22.00;;;2.30;99.90;;;;;;5094353;28;20063;-81
2020/12/10 08:57:20;;;;;;;68.38;24.27;;;2.30;99.90;;;;;;5094255;28;20032;-80
2020/12/10 08:59:48;;;;;;;72.07;23.00;;;2.40;99.90;;;;;;5092662;28;20126;-80
2020/12/10 09:02:13;;;;;;;66.72;22.95;;;2.40;99.90;;;;;;5092690;28;20039;-80
2020/12/10 09:04:40;;;;;;;69.60;22.23;;;2.50;99.90;;;;;;5094095;28;20054;-80
2020/12/10 09:07:05;;;;;;;61.35;21.55;;;2.50;99.90;;;;;;5093755;28;20047;-80
2020/12/10 09:09:31;;;;;;;64.60;22.30;;;2.50;99.90;;;;;;5092168;28;20028;-80
2020/12/10 09:11:56;;;;;;;69.65;23.80;;;2.50;99.90;;;;;;5093861;28;20071;-78
2020/12/10 09:14:22;;;;;;;61.95;22.85;;;2.50;99.90;;;;;;5093432;28;20106;-80
2020/12/10 09:16:50;;;;;;;68.38;21.58;;;2.50;99.90;;;;;;5092612;28;20466;-80
2020/12/10 09:19:16;;;;;;;61.20;22.10;;;2.50;99.90;;;;;;5092089;28;20044;-80
2020/12/10 09:21:43;;;;;;;67.00;22.50;;;2.50;99.90;;;;;;5094929;28;20040;-81
2020/12/10 09:24:09;;;;;;;68.40;23.80;;;2.60;99.90;;;;;;5097792;28;20043;-82
2020/12/10 09:26:38;;;;;;;62.50;21.55;;;2.60;99.90;;;;;;5093270;28;20130;-79
2020/12/10 09:29:03;;;;;;;61.75;21.10;;;2.60;99.90;;;;;;5093228;28;20074;-80
2020/12/10 09:31:29;;;;;;;59.70;20.75;;;2.50;99.90;;;;;;5096805;28;20044;-80
2020/12/10 09:33:55;;;;;;;68.10;21.42;;;2.50;99.90;;;;;;5096461;28;20032;-79
2020/12/10 09:36:20;;;;;;;56.72;20.50;;;2.60;99.90;;;;;;5097686;28;20437;-80
2020/12/10 09:38:47;;;;;;;64.18;22.35;;;2.60;99.90;;;;;;5099535;28;20047;-81
2020/12/10 09:41:12;;;;;;;63.78;21.77;;;2.70;99.90;;;;;;5100204;28;20044;-82
2020/12/10 09:43:38;;;;;;;62.92;20.63;;;2.70;99.90;;;;;;5099812;28;20071;-79
2020/12/10 09:46:11;;;;;;;64.30;21.55;;;2.70;99.90;;;;;;5099076;28;20478;-81
2020/12/10 09:48:37;;;;;;;65.63;22.20;;;2.80;99.90;;;;;;5099361;28;20115;-82
2020/12/10 09:51:04;;;;;;;60.42;20.85;;;2.90;99.90;;;;;;5096387;28;20130;-78
2020/12/10 09:53:36;;;;;;;65.97;20.48;;;2.90;99.90;;;;;;5096360;28;20040;-79
2020/12/10 09:56:36;;;;;;;60.95;20.25;;;2.90;99.90;;;;;;5097350;28;20035;-80
2020/12/10 09:58:58;;;;;;;61.65;21.48;;;2.90;99.90;;;;;;5096572;28;20119;-80
2020/12/10 10:01:24;;;;;;;55.67;19.35;;;2.90;99.90;;;;;;5095718;28;20100;-80
2020/12/10 10:03:50;;;;;;;56.10;20.00;;;2.90;99.90;;;;;;5099537;28;20489;-81
2020/12/10 10:06:15;;;;;;;57.42;19.25;;;2.90;99.90;;;;;;5100266;28;20122;-80
2020/12/10 10:08:41;;;;;;;56.00;18.42;;;2.90;99.90;;;;;;5095356;28;20036;-80
2020/12/10 10:11:07;;;;;;;55.35;19.45;;;3.00;99.90;;;;;;5097692;28;20050;-80
2020/12/10 10:13:33;;;;;;;59.40;19.70;;;3.00;99.90;;;;;;5096872;28;20051;-80
2020/12/10 10:16:01;;;;;;;46.90;17.38;;;2.90;99.90;;;;;;5095837;28;20036;-79
2020/12/10 10:18:26;;;;;;;46.58;17.55;;;3.00;99.90;;;;;;5100682;28;20035;-81
2020/12/10 10:20:52;;;;;;;59.20;19.27;;;3.00;99.90;;;;;;5098487;28;20040;-81
2020/12/10 10:23:18;;;;;;;49.58;18.35;;;3.00;99.90;;;;;;5099633;28;20470;-80
2020/12/10 10:25:43;;;;;;;53.10;18.67;;;3.00;99.90;;;;;;5096806;28;20066;-80
2020/12/10 10:28:11;;;;;;;53.80;18.95;;;3.10;99.90;;;;;;5100146;28;20044;-81
2020/12/10 10:30:36;;;;;;;49.25;18.02;;;3.10;99.90;;;;;;5100097;28;20534;-81
2020/12/10 10:33:02;;;;;;;48.25;16.67;;;3.10;99.90;;;;;;5098445;28;20047;-80
2020/12/10 10:35:28;;;;;;;48.78;18.05;;;3.10;99.90;;;;;;5095401;28;20127;-79
2020/12/10 10:37:54;;;;;;;46.60;17.38;;;3.00;99.90;;;;;;5095211;28;20435;-80
2020/12/10 10:40:19;;;;;;;44.50;16.58;;;3.00;99.90;;;;;;5096033;28;20040;-77
2020/12/10 10:42:48;;;;;;;48.03;17.58;;;3.00;99.90;;;;;;5095855;28;20060;-80
2020/12/10 10:45:15;;;;;;;48.20;17.42;;;3.00;99.90;;;;;;5098036;28;20178;-81
2020/12/10 10:47:40;;;;;;;48.75;16.85;;;3.10;99.90;;;;;;5097130;28;20107;-79
2020/12/10 10:50:06;;;;;;;49.10;18.70;;;3.20;99.90;;;;;;5094349;28;20135;-80
2020/12/10 10:52:31;;;;;;;51.75;18.00;;;3.20;99.90;;;;;;5094761;28;20466;-79
2020/12/10 10:54:57;;;;;;;43.38;15.73;;;3.30;99.90;;;;;;5097050;28;20043;-80
2020/12/10 10:57:23;;;;;;;46.78;16.23;;;3.30;99.90;;;;;;5097803;28;20111;-80
2020/12/10 10:59:48;;;;;;;39.50;16.55;;;3.30;99.90;;;;;;5094572;28;20071;-79
2020/12/10 11:02:15;;;;;;;46.70;16.42;;;3.30;99.90;;;;;;5094676;28;20039;-79
2020/12/10 11:04:40;;;;;;;45.58;16.05;;;3.30;99.90;;;;;;5095177;28;20044;-80
2020/12/10 11:07:06;;;;;;;40.78;15.95;;;3.30;99.90;;;;;;5094960;28;20473;-80
2020/12/10 11:09:32;;;;;;;44.15;16.50;;;3.30;99.90;;;;;;5094054;28;20032;-80
2020/12/10 11:11:57;;;;;;;36.70;14.98;;;3.40;99.90;;;;;;5094330;28;20123;-79
2020/12/10 11:14:23;;;;;;;37.53;15.60;;;3.40;99.90;;;;;;5095736;28;20040;-80
2020/12/10 11:16:51;;;;;;;40.75;15.07;;;3.40;99.90;;;;;;5096099;28;20431;-79
2020/12/10 11:19:17;;;;;;;40.90;15.18;;;3.40;99.90;;;;;;5093876;28;20036;-79
2020/12/10 11:21:43;;;;;;;39.08;14.40;;;3.30;99.90;;;;;;5095564;28;20111;-79
2020/12/10 11:24:08;;;;;;;41.53;15.52;;;3.40;99.90;;;;;;5094594;28;20059;-79
2020/12/10 11:26:34;;;;;;;41.00;15.25;;;3.50;99.90;;;;;;5094684;28;20050;-80
2020/12/10 11:28:59;;;;;;;49.25;15.73;;;3.40;99.90;;;;;;5092018;28;20044;-79
2020/12/10 11:31:26;;;;;;;42.90;16.15;;;3.60;99.90;;;;;;5093538;28;20044;-80
2020/12/10 11:33:52;;;;;;;47.28;16.42;;;3.50;99.90;;;;;;5091315;28;20052;-80
2020/12/10 11:36:19;;;;;;;51.92;15.43;;;3.40;99.90;;;;;;5091708;28;20126;-80
2020/12/10 11:38:44;;;;;;;46.22;17.23;;;3.40;99.90;;;;;;5091512;28;20028;-80
2020/12/10 11:41:10;;;;;;;48.55;16.63;;;3.40;99.90;;;;;;5091579;28;20115;-80
2020/12/10 11:43:36;;;;;;;47.75;16.80;;;3.40;99.90;;;;;;5090501;28;20036;-80
2020/12/10 11:46:02;;;;;;;41.10;16.52;;;3.40;99.90;;;;;;5090546;28;20075;-80
2020/12/10 11:48:27;;;;;;;46.65;16.55;;;3.40;99.90;;;;;;5091395;28;20040;-80
2020/12/10 11:50:53;;;;;;;40.85;15.68;;;3.40;99.90;;;;;;5091032;28;20452;-79
2020/12/10 11:53:19;;;;;;;45.67;15.77;;;3.50;99.90;;;;;;5089056;28;20036;-80
2020/12/10 11:55:45;;;;;;;50.28;16.65;;;3.50;99.90;;;;;;5091542;28;20047;-80
2020/12/10 11:58:11;;;;;;;40.33;15.77;;;3.50;99.90;;;;;;5091107;28;20032;-80
2020/12/10 12:00:37;;;;;;;36.15;13.82;;;3.60;99.90;;;;;;5090929;28;20478;-80
2020/12/10 12:03:03;;;;;;;40.00;14.98;;;3.60;99.90;;;;;;5089682;28;20066;-80
2020/12/10 12:05:29;;;;;;;39.30;14.57;;;3.60;99.90;;;;;;5090093;28;20553;-80
2020/12/10 12:07:54;;;;;;;40.47;15.25;;;3.50;99.90;;;;;;5089965;28;20072;-80
2020/12/10 12:10:21;;;;;;;37.63;14.88;;;3.50;99.90;;;;;;5091025;28;20040;-80
2020/12/10 12:12:47;;;;;;;39.50;15.13;;;3.50;99.90;;;;;;5089778;28;20142;-80
2020/12/10 12:15:12;;;;;;;35.70;13.20;;;3.60;99.90;;;;;;5089530;28;20138;-80
2020/12/10 12:17:39;;;;;;;41.90;15.18;;;3.60;99.90;;;;;;5091090;28;20093;-80
2020/12/10 12:20:06;;;;;;;35.70;14.30;;;3.50;99.90;;;;;;5090367;28;20110;-80
2020/12/10 12:22:33;;;;;;;44.53;15.80;;;3.60;99.90;;;;;;5090980;28;20044;-80
2020/12/10 12:25:00;;;;;;;40.90;14.82;;;3.60;99.90;;;;;;5089823;28;20062;-80
2020/12/10 12:27:27;;;;;;;40.70;15.77;;;3.70;99.90;;;;;;5091265;28;20032;-80
2020/12/10 12:29:52;;;;;;;38.20;14.18;;;3.80;99.90;;;;;;5090535;28;20105;-80
2020/12/10 12:32:18;;;;;;;43.47;15.77;;;3.90;99.90;;;;;;5091050;28;20383;-80
2020/12/10 12:34:43;;;;;;;37.40;14.63;;;3.90;99.90;;;;;;5090797;28;20042;-80
2020/12/10 12:37:10;;;;;;;35.33;13.60;;;4.00;99.90;;;;;;5089839;28;20036;-81